sensor_id;sensor_type;location;lat;lon;timestamp;pressure;altitude;pressure_sealevel;temperature
67822;BMP180;54434;50.096;20.082;2023-07-02T00:01:49;97931.40;;;18.00
67822;BMP180;54434;50.096;20.082;2023-07-02T00:04:26;97932.20;;;18.00
67822;BMP180;54434;50.096;20.082;2023-07-02T00:07:03;97931.40;;;18.00
67822;BMP180;54434;50.096;20.082;2023-07-02T00:09:40;97924.00;;;17.90
67822;BMP180;54434;50.096;20.082;2023-07-02T00:12:18;97922.80;;;17.90
67822;BMP180;54434;50.096;20.082;2023-07-02T00:14:54;97921.40;;;17.90
67822;BMP180;54434;50.096;20.082;2023-07-02T00:17:31;97924.40;;;17.80
67822;BMP180;54434;50.096;20.082;2023-07-02T00:20:11;97925.40;;;17.80
67822;BMP180;54434;50.096;20.082;2023-07-02T00:22:51;97920.60;;;17.70
67822;BMP180;54434;50.096;20.082;2023-07-02T00:25:29;97929.20;;;17.60
67822;BMP180;54434;50.096;20.082;2023-07-02T00:28:07;97930.20;;;17.60
67822;BMP180;54434;50.096;20.082;2023-07-02T00:30:43;97924.20;;;17.50
67822;BMP180;54434;50.096;20.082;2023-07-02T00:33:21;97924.20;;;17.50
67822;BMP180;54434;50.096;20.082;2023-07-02T00:35:59;97920.60;;;17.40
67822;BMP180;54434;50.096;20.082;2023-07-02T00:38:36;97921.00;;;17.40
67822;BMP180;54434;50.096;20.082;2023-07-02T00:41:13;97922.20;;;17.40
67822;BMP180;54434;50.096;20.082;2023-07-02T00:43:49;97924.00;;;17.40
67822;BMP180;54434;50.096;20.082;2023-07-02T00:46:31;97920.60;;;17.40
67822;BMP180;54434;50.096;20.082;2023-07-02T00:49:09;97919.20;;;17.40
67822;BMP180;54434;50.096;20.082;2023-07-02T00:51:46;97916.60;;;17.40
67822;BMP180;54434;50.096;20.082;2023-07-02T00:54:22;97914.80;;;17.40
67822;BMP180;54434;50.096;20.082;2023-07-02T00:56:59;97909.00;;;17.38
67822;BMP180;54434;50.096;20.082;2023-07-02T00:59:37;97908.00;;;17.32
67822;BMP180;54434;50.096;20.082;2023-07-02T01:02:14;97911.00;;;17.30
67822;BMP180;54434;50.096;20.082;2023-07-02T01:04:51;97904.80;;;17.30
67822;BMP180;54434;50.096;20.082;2023-07-02T01:07:33;97907.80;;;17.30
67822;BMP180;54434;50.096;20.082;2023-07-02T01:10:11;97909.60;;;17.30
67822;BMP180;54434;50.096;20.082;2023-07-02T01:12:49;97905.60;;;17.30
67822;BMP180;54434;50.096;20.082;2023-07-02T01:15:26;97906.60;;;17.30
67822;BMP180;54434;50.096;20.082;2023-07-02T01:18:04;97905.60;;;17.30
67822;BMP180;54434;50.096;20.082;2023-07-02T01:20:42;97905.00;;;17.30
67822;BMP180;54434;50.096;20.082;2023-07-02T01:23:19;97906.40;;;17.30
67822;BMP180;54434;50.096;20.082;2023-07-02T01:25:57;97909.40;;;17.30
67822;BMP180;54434;50.096;20.082;2023-07-02T01:28:41;97911.80;;;17.28
67822;BMP180;54434;50.096;20.082;2023-07-02T01:31:18;97911.60;;;17.30
67822;BMP180;54434;50.096;20.082;2023-07-02T01:34:00;97907.80;;;17.26
67822;BMP180;54434;50.096;20.082;2023-07-02T01:36:40;97909.20;;;17.20
67822;BMP180;54434;50.096;20.082;2023-07-02T01:39:17;97908.00;;;17.20
67822;BMP180;54434;50.096;20.082;2023-07-02T01:42:08;97906.20;;;17.20
67822;BMP180;54434;50.096;20.082;2023-07-02T01:44:47;97901.60;;;17.20
67822;BMP180;54434;50.096;20.082;2023-07-02T01:47:24;97902.00;;;17.20
67822;BMP180;54434;50.096;20.082;2023-07-02T01:50:01;97901.60;;;17.20
67822;BMP180;54434;50.096;20.082;2023-07-02T01:52:38;97896.60;;;17.18
67822;BMP180;54434;50.096;20.082;2023-07-02T01:55:15;97900.00;;;17.14
67822;BMP180;54434;50.096;20.082;2023-07-02T01:57:53;97897.40;;;17.10
67822;BMP180;54434;50.096;20.082;2023-07-02T02:00:29;97898.80;;;17.10
67822;BMP180;54434;50.096;20.082;2023-07-02T02:03:07;97894.60;;;17.10
67822;BMP180;54434;50.096;20.082;2023-07-02T02:05:44;97895.60;;;17.10
67822;BMP180;54434;50.096;20.082;2023-07-02T02:08:20;97895.80;;;17.20
67822;BMP180;54434;50.096;20.082;2023-07-02T02:10:57;97895.60;;;17.20
67822;BMP180;54434;50.096;20.082;2023-07-02T02:13:34;97897.00;;;17.20
67822;BMP180;54434;50.096;20.082;2023-07-02T02:16:10;97897.00;;;17.20
67822;BMP180;54434;50.096;20.082;2023-07-02T02:18:47;97891.60;;;17.20
67822;BMP180;54434;50.096;20.082;2023-07-02T02:21:27;97896.80;;;17.20
67822;BMP180;54434;50.096;20.082;2023-07-02T02:24:04;97894.40;;;17.20
67822;BMP180;54434;50.096;20.082;2023-07-02T02:26:41;97890.00;;;17.20
67822;BMP180;54434;50.096;20.082;2023-07-02T02:29:18;97889.80;;;17.28
67822;BMP180;54434;50.096;20.082;2023-07-02T02:31:54;97884.80;;;17.30
67822;BMP180;54434;50.096;20.082;2023-07-02T02:34:31;97886.00;;;17.30
67822;BMP180;54434;50.096;20.082;2023-07-02T02:37:08;97886.40;;;17.30
67822;BMP180;54434;50.096;20.082;2023-07-02T02:39:45;97888.80;;;17.32
67822;BMP180;54434;50.096;20.082;2023-07-02T02:42:22;97888.00;;;17.40
67822;BMP180;54434;50.096;20.082;2023-07-02T02:44:59;97884.40;;;17.40
67822;BMP180;54434;50.096;20.082;2023-07-02T02:47:35;97887.00;;;17.40
67822;BMP180;54434;50.096;20.082;2023-07-02T02:50:15;97886.20;;;17.40
67822;BMP180;54434;50.096;20.082;2023-07-02T02:52:51;97888.80;;;17.50
67822;BMP180;54434;50.096;20.082;2023-07-02T02:55:28;97887.20;;;17.50
67822;BMP180;54434;50.096;20.082;2023-07-02T02:58:04;97886.40;;;17.50
67822;BMP180;54434;50.096;20.082;2023-07-02T03:00:41;97885.00;;;17.50
67822;BMP180;54434;50.096;20.082;2023-07-02T03:03:21;97888.60;;;17.58
67822;BMP180;54434;50.096;20.082;2023-07-02T03:05:59;97887.60;;;17.60
67822;BMP180;54434;50.096;20.082;2023-07-02T03:08:36;97885.40;;;17.60
67822;BMP180;54434;50.096;20.082;2023-07-02T03:11:12;97881.80;;;17.70
67822;BMP180;54434;50.096;20.082;2023-07-02T03:13:49;97885.60;;;17.70
67822;BMP180;54434;50.096;20.082;2023-07-02T03:16:25;97886.20;;;17.70
67822;BMP180;54434;50.096;20.082;2023-07-02T03:19:02;97879.20;;;17.80
67822;BMP180;54434;50.096;20.082;2023-07-02T03:21:39;97876.20;;;17.80
67822;BMP180;54434;50.096;20.082;2023-07-02T03:24:15;97877.20;;;17.82
67822;BMP180;54434;50.096;20.082;2023-07-02T03:26:52;97875.00;;;17.90
67822;BMP180;54434;50.096;20.082;2023-07-02T03:29:28;97872.00;;;17.90
67822;BMP180;54434;50.096;20.082;2023-07-02T03:32:06;97878.40;;;18.00
67822;BMP180;54434;50.096;20.082;2023-07-02T03:34:43;97871.80;;;18.10
67822;BMP180;54434;50.096;20.082;2023-07-02T03:37:20;97872.60;;;18.20
67822;BMP180;54434;50.096;20.082;2023-07-02T03:39:56;97873.40;;;18.30
67822;BMP180;54434;50.096;20.082;2023-07-02T03:42:34;97873.80;;;18.54
67822;BMP180;54434;50.096;20.082;2023-07-02T03:45:12;97869.60;;;18.90
67822;BMP180;54434;50.096;20.082;2023-07-02T03:47:49;97872.00;;;19.50
67822;BMP180;54434;50.096;20.082;2023-07-02T03:50:26;97875.00;;;20.26
67822;BMP180;54434;50.096;20.082;2023-07-02T03:53:02;97874.20;;;21.04
67822;BMP180;54434;50.096;20.082;2023-07-02T03:55:39;97874.60;;;21.78
67822;BMP180;54434;50.096;20.082;2023-07-02T03:58:16;97876.80;;;22.52
67822;BMP180;54434;50.096;20.082;2023-07-02T04:00:53;97879.00;;;23.18
67822;BMP180;54434;50.096;20.082;2023-07-02T04:03:29;97881.20;;;23.84
67822;BMP180;54434;50.096;20.082;2023-07-02T04:06:06;97877.60;;;24.40
67822;BMP180;54434;50.096;20.082;2023-07-02T04:08:42;97879.40;;;24.86
67822;BMP180;54434;50.096;20.082;2023-07-02T04:11:20;97884.20;;;25.22
67822;BMP180;54434;50.096;20.082;2023-07-02T04:13:56;97882.80;;;25.60
67822;BMP180;54434;50.096;20.082;2023-07-02T04:16:33;97887.00;;;26.04
67822;BMP180;54434;50.096;20.082;2023-07-02T04:19:09;97883.40;;;26.40
67822;BMP180;54434;50.096;20.082;2023-07-02T04:21:46;97885.80;;;26.78
67822;BMP180;54434;50.096;20.082;2023-07-02T04:24:23;97890.40;;;27.10
67822;BMP180;54434;50.096;20.082;2023-07-02T04:27:01;97892.60;;;27.40
67822;BMP180;54434;50.096;20.082;2023-07-02T04:29:58;97897.80;;;27.72
67822;BMP180;54434;50.096;20.082;2023-07-02T04:32:34;97895.60;;;28.00
67822;BMP180;54434;50.096;20.082;2023-07-02T04:35:12;97896.40;;;28.38
67822;BMP180;54434;50.096;20.082;2023-07-02T04:37:49;97899.40;;;28.50
67822;BMP180;54434;50.096;20.082;2023-07-02T04:40:26;97906.60;;;28.60
67822;BMP180;54434;50.096;20.082;2023-07-02T04:43:03;97907.60;;;28.80
67822;BMP180;54434;50.096;20.082;2023-07-02T04:45:40;97909.60;;;28.80
67822;BMP180;54434;50.096;20.082;2023-07-02T04:48:19;97908.80;;;28.80
67822;BMP180;54434;50.096;20.082;2023-07-02T04:50:56;97908.80;;;29.00
67822;BMP180;54434;50.096;20.082;2023-07-02T04:53:33;97911.60;;;29.10
67822;BMP180;54434;50.096;20.082;2023-07-02T04:56:10;97913.20;;;29.06
67822;BMP180;54434;50.096;20.082;2023-07-02T04:58:46;97919.80;;;29.20
67822;BMP180;54434;50.096;20.082;2023-07-02T05:01:23;97920.40;;;29.28
67822;BMP180;54434;50.096;20.082;2023-07-02T05:03:59;97919.80;;;29.10
67822;BMP180;54434;50.096;20.082;2023-07-02T05:06:36;97923.60;;;29.10
67822;BMP180;54434;50.096;20.082;2023-07-02T05:09:12;97922.20;;;29.10
67822;BMP180;54434;50.096;20.082;2023-07-02T05:11:49;97921.60;;;28.90
67822;BMP180;54434;50.096;20.082;2023-07-02T05:14:25;97924.60;;;29.00
67822;BMP180;54434;50.096;20.082;2023-07-02T05:17:02;97927.40;;;29.10
67822;BMP180;54434;50.096;20.082;2023-07-02T05:19:39;97932.80;;;29.20
67822;BMP180;54434;50.096;20.082;2023-07-02T05:22:18;97933.20;;;29.40
67822;BMP180;54434;50.096;20.082;2023-07-02T05:24:54;97935.80;;;29.52
67822;BMP180;54434;50.096;20.082;2023-07-02T05:27:31;97928.80;;;29.80
67822;BMP180;54434;50.096;20.082;2023-07-02T05:30:10;97933.40;;;29.90
67822;BMP180;54434;50.096;20.082;2023-07-02T05:32:48;97935.60;;;30.20
67822;BMP180;54434;50.096;20.082;2023-07-02T05:35:24;97939.00;;;30.40
67822;BMP180;54434;50.096;20.082;2023-07-02T05:38:01;97940.80;;;30.60
67822;BMP180;54434;50.096;20.082;2023-07-02T05:40:37;97943.60;;;30.90
67822;BMP180;54434;50.096;20.082;2023-07-02T05:43:14;97941.00;;;31.04
67822;BMP180;54434;50.096;20.082;2023-07-02T05:45:51;97946.40;;;31.40
67822;BMP180;54434;50.096;20.082;2023-07-02T05:48:28;97944.60;;;31.48
67822;BMP180;54434;50.096;20.082;2023-07-02T05:51:05;97947.80;;;31.50
67822;BMP180;54434;50.096;20.082;2023-07-02T05:53:42;97949.20;;;31.64
67822;BMP180;54434;50.096;20.082;2023-07-02T05:56:19;97951.60;;;31.90
67822;BMP180;54434;50.096;20.082;2023-07-02T05:58:56;97953.60;;;31.60
67822;BMP180;54434;50.096;20.082;2023-07-02T06:01:32;97956.00;;;31.20
67822;BMP180;54434;50.096;20.082;2023-07-02T06:04:09;97953.40;;;30.80
67822;BMP180;54434;50.096;20.082;2023-07-02T06:06:45;97953.00;;;30.36
67822;BMP180;54434;50.096;20.082;2023-07-02T06:09:22;97951.00;;;30.24
67822;BMP180;54434;50.096;20.082;2023-07-02T06:11:58;97946.40;;;30.50
67822;BMP180;54434;50.096;20.082;2023-07-02T06:14:35;97947.20;;;30.70
67822;BMP180;54434;50.096;20.082;2023-07-02T06:17:12;97948.60;;;30.80
67822;BMP180;54434;50.096;20.082;2023-07-02T06:19:48;97947.00;;;30.80
67822;BMP180;54434;50.096;20.082;2023-07-02T06:22:25;97948.80;;;30.90
67822;BMP180;54434;50.096;20.082;2023-07-02T06:25:02;97947.80;;;30.96
67822;BMP180;54434;50.096;20.082;2023-07-02T06:27:40;97956.00;;;30.74
67822;BMP180;54434;50.096;20.082;2023-07-02T06:30:17;97956.40;;;30.50
67822;BMP180;54434;50.096;20.082;2023-07-02T06:32:54;97953.40;;;30.20
67822;BMP180;54434;50.096;20.082;2023-07-02T06:35:31;97954.40;;;29.90
67822;BMP180;54434;50.096;20.082;2023-07-02T06:38:08;97953.80;;;29.80
67822;BMP180;54434;50.096;20.082;2023-07-02T06:40:45;97952.40;;;30.10
67822;BMP180;54434;50.096;20.082;2023-07-02T06:43:22;97952.80;;;30.40
67822;BMP180;54434;50.096;20.082;2023-07-02T06:45:58;97960.60;;;30.50
67822;BMP180;54434;50.096;20.082;2023-07-02T06:48:34;97957.60;;;30.56
67822;BMP180;54434;50.096;20.082;2023-07-02T06:51:11;97960.80;;;30.70
67822;BMP180;54434;50.096;20.082;2023-07-02T06:53:50;97957.60;;;30.50
67822;BMP180;54434;50.096;20.082;2023-07-02T06:56:27;97957.60;;;30.60
67822;BMP180;54434;50.096;20.082;2023-07-02T06:59:04;97957.40;;;30.56
67822;BMP180;54434;50.096;20.082;2023-07-02T07:01:40;97957.40;;;30.70
67822;BMP180;54434;50.096;20.082;2023-07-02T07:04:17;97963.60;;;30.80
67822;BMP180;54434;50.096;20.082;2023-07-02T07:06:54;97966.40;;;30.90
67822;BMP180;54434;50.096;20.082;2023-07-02T07:09:31;97964.80;;;30.98
67822;BMP180;54434;50.096;20.082;2023-07-02T07:12:10;97971.80;;;31.08
67822;BMP180;54434;50.096;20.082;2023-07-02T07:14:46;97970.20;;;31.00
67822;BMP180;54434;50.096;20.082;2023-07-02T07:17:23;97981.40;;;30.80
67822;BMP180;54434;50.096;20.082;2023-07-02T07:20:00;97986.00;;;30.70
67822;BMP180;54434;50.096;20.082;2023-07-02T07:22:38;97988.40;;;30.50
67822;BMP180;54434;50.096;20.082;2023-07-02T07:25:15;97992.40;;;30.34
67822;BMP180;54434;50.096;20.082;2023-07-02T07:27:55;97988.20;;;30.00
67822;BMP180;54434;50.096;20.082;2023-07-02T07:30:31;97996.80;;;29.70
67822;BMP180;54434;50.096;20.082;2023-07-02T07:33:07;98000.60;;;29.38
67822;BMP180;54434;50.096;20.082;2023-07-02T07:35:44;98002.40;;;28.88
67822;BMP180;54434;50.096;20.082;2023-07-02T07:38:21;98007.00;;;28.48
67822;BMP180;54434;50.096;20.082;2023-07-02T07:40:58;98009.80;;;28.06
67822;BMP180;54434;50.096;20.082;2023-07-02T07:43:35;98016.00;;;27.60
67822;BMP180;54434;50.096;20.082;2023-07-02T07:46:12;98016.20;;;27.20
67822;BMP180;54434;50.096;20.082;2023-07-02T07:48:48;98014.60;;;26.90
67822;BMP180;54434;50.096;20.082;2023-07-02T07:51:25;98018.00;;;26.60
67822;BMP180;54434;50.096;20.082;2023-07-02T07:54:05;98018.20;;;26.40
67822;BMP180;54434;50.096;20.082;2023-07-02T07:56:41;98018.80;;;26.30
67822;BMP180;54434;50.096;20.082;2023-07-02T07:59:18;98016.20;;;26.10
67822;BMP180;54434;50.096;20.082;2023-07-02T08:01:55;98019.00;;;26.10
67822;BMP180;54434;50.096;20.082;2023-07-02T08:04:32;98024.40;;;26.08
67822;BMP180;54434;50.096;20.082;2023-07-02T08:07:09;98026.00;;;25.90
67822;BMP180;54434;50.096;20.082;2023-07-02T08:09:47;98031.40;;;25.80
67822;BMP180;54434;50.096;20.082;2023-07-02T08:12:24;98032.40;;;25.80
67822;BMP180;54434;50.096;20.082;2023-07-02T08:15:02;98035.40;;;25.90
67822;BMP180;54434;50.096;20.082;2023-07-02T08:17:39;98030.60;;;25.90
67822;BMP180;54434;50.096;20.082;2023-07-02T08:20:16;98031.20;;;26.00
67822;BMP180;54434;50.096;20.082;2023-07-02T08:22:53;98029.00;;;26.20
67822;BMP180;54434;50.096;20.082;2023-07-02T08:25:30;98031.40;;;26.34
67822;BMP180;54434;50.096;20.082;2023-07-02T08:28:36;98030.40;;;26.50
67822;BMP180;54434;50.096;20.082;2023-07-02T08:31:13;98029.40;;;26.70
67822;BMP180;54434;50.096;20.082;2023-07-02T08:33:50;98031.00;;;27.00
67822;BMP180;54434;50.096;20.082;2023-07-02T08:36:31;98030.20;;;27.22
67822;BMP180;54434;50.096;20.082;2023-07-02T08:39:12;98031.40;;;27.60
67822;BMP180;54434;50.096;20.082;2023-07-02T08:41:50;98028.40;;;27.50
67822;BMP180;54434;50.096;20.082;2023-07-02T08:44:27;98027.80;;;27.58
67822;BMP180;54434;50.096;20.082;2023-07-02T08:47:05;98025.80;;;27.60
67822;BMP180;54434;50.096;20.082;2023-07-02T08:49:43;98031.00;;;27.40
67822;BMP180;54434;50.096;20.082;2023-07-02T08:52:19;98032.00;;;27.38
67822;BMP180;54434;50.096;20.082;2023-07-02T08:54:56;98036.80;;;27.28
67822;BMP180;54434;50.096;20.082;2023-07-02T08:57:32;98038.40;;;27.20
67822;BMP180;54434;50.096;20.082;2023-07-02T09:00:15;98035.60;;;27.00
67822;BMP180;54434;50.096;20.082;2023-07-02T09:02:50;98034.80;;;26.90
67822;BMP180;54434;50.096;20.082;2023-07-02T09:05:26;98035.20;;;26.86
67822;BMP180;54434;50.096;20.082;2023-07-02T09:08:05;98036.80;;;26.70
67822;BMP180;54434;50.096;20.082;2023-07-02T09:10:42;98035.80;;;26.70
67822;BMP180;54434;50.096;20.082;2023-07-02T09:13:18;98035.20;;;26.70
67822;BMP180;54434;50.096;20.082;2023-07-02T09:15:54;98038.60;;;26.70
67822;BMP180;54434;50.096;20.082;2023-07-02T09:18:31;98035.80;;;26.70
67822;BMP180;54434;50.096;20.082;2023-07-02T09:21:08;98039.20;;;26.90
67822;BMP180;54434;50.096;20.082;2023-07-02T09:23:44;98038.60;;;27.10
67822;BMP180;54434;50.096;20.082;2023-07-02T09:26:25;98036.00;;;27.20
67822;BMP180;54434;50.096;20.082;2023-07-02T09:29:06;98027.60;;;27.28
67822;BMP180;54434;50.096;20.082;2023-07-02T09:34:00;98037.00;;;27.00
67822;BMP180;54434;50.096;20.082;2023-07-02T09:36:38;98037.60;;;27.02
67822;BMP180;54434;50.096;20.082;2023-07-02T09:39:19;98040.80;;;27.12
67822;BMP180;54434;50.096;20.082;2023-07-02T09:41:58;98035.00;;;27.30
67822;BMP180;54434;50.096;20.082;2023-07-02T09:44:36;98043.60;;;27.40
67822;BMP180;54434;50.096;20.082;2023-07-02T09:47:14;98043.60;;;27.40
67822;BMP180;54434;50.096;20.082;2023-07-02T09:49:59;98052.40;;;27.20
67822;BMP180;54434;50.096;20.082;2023-07-02T09:52:39;98049.20;;;26.92
67822;BMP180;54434;50.096;20.082;2023-07-02T09:55:16;98053.00;;;26.70
67822;BMP180;54434;50.096;20.082;2023-07-02T09:57:53;98053.80;;;26.50
67822;BMP180;54434;50.096;20.082;2023-07-02T10:00:30;98052.60;;;26.40
67822;BMP180;54434;50.096;20.082;2023-07-02T10:03:07;98059.00;;;26.24
67822;BMP180;54434;50.096;20.082;2023-07-02T10:05:44;98061.60;;;26.10
67822;BMP180;54434;50.096;20.082;2023-07-02T10:08:21;98061.20;;;26.00
67822;BMP180;54434;50.096;20.082;2023-07-02T10:11:11;98068.60;;;25.90
67822;BMP180;54434;50.096;20.082;2023-07-02T10:13:59;98072.60;;;25.90
67822;BMP180;54434;50.096;20.082;2023-07-02T10:16:47;98069.60;;;25.90
67822;BMP180;54434;50.096;20.082;2023-07-02T10:19:24;98066.20;;;25.90
67822;BMP180;54434;50.096;20.082;2023-07-02T10:22:07;98073.80;;;25.90
67822;BMP180;54434;50.096;20.082;2023-07-02T10:24:54;98072.20;;;25.80
67822;BMP180;54434;50.096;20.082;2023-07-02T10:27:41;98071.00;;;25.60
67822;BMP180;54434;50.096;20.082;2023-07-02T10:30:18;98070.20;;;25.40
67822;BMP180;54434;50.096;20.082;2023-07-02T10:33:17;98070.00;;;25.00
67822;BMP180;54434;50.096;20.082;2023-07-02T10:35:54;98071.00;;;24.80
67822;BMP180;54434;50.096;20.082;2023-07-02T10:38:31;98068.60;;;24.60
67822;BMP180;54434;50.096;20.082;2023-07-02T10:41:07;98067.40;;;24.46
67822;BMP180;54434;50.096;20.082;2023-07-02T10:43:43;98068.80;;;24.50
67822;BMP180;54434;50.096;20.082;2023-07-02T10:46:24;98071.60;;;24.72
67822;BMP180;54434;50.096;20.082;2023-07-02T10:49:01;98074.40;;;25.00
67822;BMP180;54434;50.096;20.082;2023-07-02T10:51:38;98077.00;;;25.10
67822;BMP180;54434;50.096;20.082;2023-07-02T10:54:14;98075.60;;;25.40
67822;BMP180;54434;50.096;20.082;2023-07-02T10:56:58;98079.80;;;25.38
67822;BMP180;54434;50.096;20.082;2023-07-02T10:59:34;98079.00;;;25.20
67822;BMP180;54434;50.096;20.082;2023-07-02T11:02:12;98077.40;;;25.40
67822;BMP180;54434;50.096;20.082;2023-07-02T11:04:49;98080.60;;;25.60
67822;BMP180;54434;50.096;20.082;2023-07-02T11:07:28;98076.40;;;25.80
67822;BMP180;54434;50.096;20.082;2023-07-02T11:10:06;98080.40;;;25.90
67822;BMP180;54434;50.096;20.082;2023-07-02T11:12:43;98077.00;;;25.86
67822;BMP180;54434;50.096;20.082;2023-07-02T11:15:21;98079.40;;;25.68
67822;BMP180;54434;50.096;20.082;2023-07-02T11:18:07;98075.20;;;25.50
67822;BMP180;54434;50.096;20.082;2023-07-02T11:20:46;98070.00;;;25.50
67822;BMP180;54434;50.096;20.082;2023-07-02T11:23:25;98061.00;;;25.50
67822;BMP180;54434;50.096;20.082;2023-07-02T11:26:03;98059.20;;;25.60
67822;BMP180;54434;50.096;20.082;2023-07-02T11:28:51;98062.80;;;25.80
67822;BMP180;54434;50.096;20.082;2023-07-02T11:31:31;98068.80;;;25.92
67822;BMP180;54434;50.096;20.082;2023-07-02T11:34:16;98071.00;;;25.90
67822;BMP180;54434;50.096;20.082;2023-07-02T11:36:55;98070.00;;;26.00
67822;BMP180;54434;50.096;20.082;2023-07-02T11:39:32;98070.60;;;26.00
67822;BMP180;54434;50.096;20.082;2023-07-02T11:42:10;98068.80;;;25.90
67822;BMP180;54434;50.096;20.082;2023-07-02T11:44:46;98065.00;;;25.90
67822;BMP180;54434;50.096;20.082;2023-07-02T11:47:23;98062.60;;;25.74
67822;BMP180;54434;50.096;20.082;2023-07-02T11:50:00;98060.40;;;25.54
67822;BMP180;54434;50.096;20.082;2023-07-02T11:52:55;98059.20;;;25.40
67822;BMP180;54434;50.096;20.082;2023-07-02T11:55:31;98055.80;;;25.20
67822;BMP180;54434;50.096;20.082;2023-07-02T11:58:08;98054.80;;;25.10
67822;BMP180;54434;50.096;20.082;2023-07-02T12:00:45;98045.60;;;25.12
67822;BMP180;54434;50.096;20.082;2023-07-02T12:03:21;98043.00;;;25.00
67822;BMP180;54434;50.096;20.082;2023-07-02T12:05:59;98042.40;;;24.90
67822;BMP180;54434;50.096;20.082;2023-07-02T12:08:35;98041.60;;;24.80
67822;BMP180;54434;50.096;20.082;2023-07-02T12:11:13;98041.40;;;24.80
67822;BMP180;54434;50.096;20.082;2023-07-02T12:13:51;98036.80;;;24.90
67822;BMP180;54434;50.096;20.082;2023-07-02T12:16:27;98033.80;;;24.98
67822;BMP180;54434;50.096;20.082;2023-07-02T12:19:04;98035.20;;;25.10
67822;BMP180;54434;50.096;20.082;2023-07-02T12:21:40;98037.60;;;25.12
67822;BMP180;54434;50.096;20.082;2023-07-02T12:24:17;98037.20;;;25.24
67822;BMP180;54434;50.096;20.082;2023-07-02T12:26:54;98038.20;;;25.40
67822;BMP180;54434;50.096;20.082;2023-07-02T12:29:31;98044.00;;;25.42
67822;BMP180;54434;50.096;20.082;2023-07-02T12:32:09;98042.80;;;25.40
67822;BMP180;54434;50.096;20.082;2023-07-02T12:34:46;98042.60;;;25.50
67822;BMP180;54434;50.096;20.082;2023-07-02T12:37:22;98043.40;;;25.54
67822;BMP180;54434;50.096;20.082;2023-07-02T12:39:59;98039.60;;;25.60
67822;BMP180;54434;50.096;20.082;2023-07-02T12:42:36;98038.60;;;25.60
67822;BMP180;54434;50.096;20.082;2023-07-02T12:45:16;98033.60;;;25.60
67822;BMP180;54434;50.096;20.082;2023-07-02T12:47:57;98028.80;;;25.70
67822;BMP180;54434;50.096;20.082;2023-07-02T12:50:36;98024.00;;;25.80
67822;BMP180;54434;50.096;20.082;2023-07-02T12:53:13;98028.40;;;25.90
67822;BMP180;54434;50.096;20.082;2023-07-02T12:55:50;98021.00;;;25.90
67822;BMP180;54434;50.096;20.082;2023-07-02T12:58:26;98020.00;;;25.90
67822;BMP180;54434;50.096;20.082;2023-07-02T13:01:03;98023.80;;;25.90
67822;BMP180;54434;50.096;20.082;2023-07-02T13:03:46;98024.80;;;25.80
67822;BMP180;54434;50.096;20.082;2023-07-02T13:06:23;98028.20;;;25.80
67822;BMP180;54434;50.096;20.082;2023-07-02T13:09:00;98029.80;;;25.70
67822;BMP180;54434;50.096;20.082;2023-07-02T13:11:37;98031.80;;;25.60
67822;BMP180;54434;50.096;20.082;2023-07-02T13:14:14;98033.00;;;25.60
67822;BMP180;54434;50.096;20.082;2023-07-02T13:16:50;98036.60;;;25.60
67822;BMP180;54434;50.096;20.082;2023-07-02T13:19:27;98029.40;;;25.50
67822;BMP180;54434;50.096;20.082;2023-07-02T13:22:04;98027.40;;;25.50
67822;BMP180;54434;50.096;20.082;2023-07-02T13:24:41;98032.00;;;25.50
67822;BMP180;54434;50.096;20.082;2023-07-02T13:27:21;98025.80;;;25.40
67822;BMP180;54434;50.096;20.082;2023-07-02T13:29:58;98032.80;;;25.50
67822;BMP180;54434;50.096;20.082;2023-07-02T13:32:35;98036.80;;;25.50
67822;BMP180;54434;50.096;20.082;2023-07-02T13:35:12;98031.20;;;25.40
67822;BMP180;54434;50.096;20.082;2023-07-02T13:37:49;98031.00;;;25.30
67822;BMP180;54434;50.096;20.082;2023-07-02T13:40:26;98030.60;;;25.20
67822;BMP180;54434;50.096;20.082;2023-07-02T13:43:03;98032.40;;;25.10
67822;BMP180;54434;50.096;20.082;2023-07-02T13:45:39;98030.80;;;25.00
67822;BMP180;54434;50.096;20.082;2023-07-02T13:48:16;98028.40;;;25.10
67822;BMP180;54434;50.096;20.082;2023-07-02T13:50:53;98033.00;;;25.10
67822;BMP180;54434;50.096;20.082;2023-07-02T13:53:29;98033.00;;;25.12
67822;BMP180;54434;50.096;20.082;2023-07-02T13:56:06;98044.80;;;25.30
67822;BMP180;54434;50.096;20.082;2023-07-02T13:59:05;98086.40;;;25.30
67822;BMP180;54434;50.096;20.082;2023-07-02T14:01:41;98087.60;;;24.54
67822;BMP180;54434;50.096;20.082;2023-07-02T14:04:20;98091.60;;;23.90
67822;BMP180;54434;50.096;20.082;2023-07-02T14:06:56;98091.00;;;23.40
67822;BMP180;54434;50.096;20.082;2023-07-02T14:09:33;98103.80;;;22.94
67822;BMP180;54434;50.096;20.082;2023-07-02T14:12:12;98100.80;;;22.60
67822;BMP180;54434;50.096;20.082;2023-07-02T14:14:48;98098.80;;;22.48
67822;BMP180;54434;50.096;20.082;2023-07-02T14:17:25;98104.00;;;22.30
67822;BMP180;54434;50.096;20.082;2023-07-02T14:20:02;98106.60;;;22.10
67822;BMP180;54434;50.096;20.082;2023-07-02T14:22:40;98118.60;;;22.00
67822;BMP180;54434;50.096;20.082;2023-07-02T14:25:17;98117.20;;;21.90
67822;BMP180;54434;50.096;20.082;2023-07-02T14:28:10;98118.60;;;21.80
67822;BMP180;54434;50.096;20.082;2023-07-02T14:30:47;98117.40;;;21.66
67822;BMP180;54434;50.096;20.082;2023-07-02T14:33:24;98113.20;;;21.48
67822;BMP180;54434;50.096;20.082;2023-07-02T14:36:01;98114.60;;;21.28
67822;BMP180;54434;50.096;20.082;2023-07-02T14:38:38;98114.20;;;21.10
67822;BMP180;54434;50.096;20.082;2023-07-02T14:41:14;98108.40;;;21.00
67822;BMP180;54434;50.096;20.082;2023-07-02T14:43:51;98108.00;;;20.90
67822;BMP180;54434;50.096;20.082;2023-07-02T14:46:28;98109.60;;;20.80
67822;BMP180;54434;50.096;20.082;2023-07-02T14:49:04;98111.00;;;20.80
67822;BMP180;54434;50.096;20.082;2023-07-02T14:51:41;98106.60;;;20.80
67822;BMP180;54434;50.096;20.082;2023-07-02T14:54:18;98110.40;;;20.90
67822;BMP180;54434;50.096;20.082;2023-07-02T14:56:56;98109.20;;;20.90
67822;BMP180;54434;50.096;20.082;2023-07-02T14:59:34;98114.80;;;21.00